createdAt,value
2018-09-03T00:01:39.770Z,12.60
2018-09-03T00:04:08.735Z,12.50
2018-09-03T00:06:37.545Z,12.50
2018-09-03T00:09:08.614Z,12.50
2018-09-03T00:11:37.589Z,12.50
2018-09-03T00:14:06.815Z,12.50
2018-09-03T00:16:35.658Z,12.40
2018-09-03T00:19:04.583Z,12.40
2018-09-03T00:21:33.387Z,12.40
2018-09-03T00:24:02.178Z,12.40
2018-09-03T00:26:31.147Z,12.40
2018-09-03T00:28:59.995Z,12.40
2018-09-03T00:31:33.943Z,12.40
2018-09-03T00:34:07.971Z,12.40
2018-09-03T00:36:41.999Z,12.40
2018-09-03T00:39:16.150Z,12.40
2018-09-03T00:41:50.155Z,12.40
2018-09-03T00:44:24.139Z,12.30
2018-09-03T00:47:00.631Z,12.20
2018-09-03T00:49:31.086Z,12.30
2018-09-03T00:52:00.049Z,12.30
2018-09-03T00:54:28.956Z,12.30
2018-09-03T00:56:57.807Z,12.20
2018-09-03T00:59:26.819Z,12.20
2018-09-03T01:01:55.635Z,12.20
2018-09-03T01:04:24.475Z,12.20
2018-09-03T01:06:53.425Z,12.30
2018-09-03T01:09:22.275Z,12.30
2018-09-03T01:11:51.551Z,12.30
2018-09-03T01:14:20.523Z,12.20
2018-09-03T01:16:49.355Z,12.20
2018-09-03T01:19:18.477Z,12.20
2018-09-03T01:21:47.447Z,12.20
2018-09-03T01:24:16.256Z,12.20
2018-09-03T01:26:45.072Z,12.20
2018-09-03T01:29:14.066Z,12.10
2018-09-03T01:31:42.867Z,12.10
2018-09-03T01:34:11.758Z,12.00
2018-09-03T01:36:40.665Z,12.00
2018-09-03T01:39:09.679Z,12.00
2018-09-03T01:41:38.499Z,12.00
2018-09-03T01:44:08.099Z,12.00
2018-09-03T01:46:36.891Z,12.10
2018-09-03T01:49:05.670Z,12.00
2018-09-03T01:51:35.401Z,11.90
2018-09-03T01:54:04.248Z,11.90
2018-09-03T01:56:33.083Z,11.90
2018-09-03T01:59:02.039Z,11.90
2018-09-03T02:01:30.819Z,11.90
2018-09-03T02:03:59.695Z,11.80
2018-09-03T02:06:28.564Z,11.80
2018-09-03T02:08:57.380Z,11.70
2018-09-03T02:11:26.222Z,11.70
2018-09-03T02:13:55.227Z,11.70
2018-09-03T02:16:24.208Z,11.70
2018-09-03T02:18:53.055Z,11.60
2018-09-03T02:21:22.143Z,11.60
2018-09-03T02:23:51.307Z,11.60
2018-09-03T02:26:20.110Z,11.60
2018-09-03T02:28:49.064Z,11.60
2018-09-03T02:31:17.862Z,11.60
2018-09-03T02:33:46.679Z,11.60
2018-09-03T02:36:15.990Z,11.60
2018-09-03T02:38:44.827Z,11.50
2018-09-03T02:41:13.728Z,11.50
2018-09-03T02:43:42.694Z,11.50
2018-09-03T02:46:11.907Z,11.50
2018-09-03T02:48:40.723Z,11.50
2018-09-03T02:51:09.679Z,11.50
2018-09-03T02:53:38.503Z,11.50
2018-09-03T02:56:07.334Z,11.50
2018-09-03T02:58:36.272Z,11.50
2018-09-03T03:01:05.175Z,11.60
2018-09-03T03:03:34.124Z,11.50
2018-09-03T03:06:03.083Z,11.50
2018-09-03T03:08:31.897Z,11.50
2018-09-03T03:11:00.735Z,11.40
2018-09-03T03:13:29.796Z,11.50
2018-09-03T03:15:58.614Z,11.40
2018-09-03T03:18:27.510Z,11.50
2018-09-03T03:20:56.439Z,11.40
2018-09-03T03:23:25.295Z,11.40
2018-09-03T03:25:54.151Z,11.40
2018-09-03T03:28:23.075Z,11.40
2018-09-03T03:30:51.891Z,11.40
2018-09-03T03:33:20.701Z,11.40
2018-09-03T03:35:50.287Z,11.40
2018-09-03T03:38:19.094Z,11.40
2018-09-03T03:40:47.922Z,11.40
2018-09-03T03:43:16.962Z,11.40
2018-09-03T03:45:45.791Z,11.40
2018-09-03T03:48:14.724Z,11.50
2018-09-03T03:50:43.721Z,11.50
2018-09-03T03:53:12.762Z,11.60
2018-09-03T03:55:41.570Z,11.60
2018-09-03T03:58:10.502Z,11.70
2018-09-03T04:00:39.359Z,11.70
2018-09-03T04:03:08.174Z,11.70
2018-09-03T04:05:37.131Z,11.80
2018-09-03T04:08:06.222Z,11.80
2018-09-03T04:10:35.164Z,11.80
2018-09-03T04:13:04.947Z,11.80
2018-09-03T04:15:35.131Z,11.80
2018-09-03T04:18:04.432Z,11.70
2018-09-03T04:20:33.485Z,11.70
2018-09-03T04:23:02.836Z,11.70
2018-09-03T04:25:31.544Z,11.70
2018-09-03T04:28:00.518Z,11.70
2018-09-03T04:30:29.425Z,11.70
2018-09-03T04:32:58.232Z,11.70
2018-09-03T04:35:27.156Z,11.80
2018-09-03T04:37:56.074Z,11.80
2018-09-03T04:40:24.970Z,11.90
2018-09-03T04:42:54.250Z,11.90
2018-09-03T04:45:23.092Z,11.90
2018-09-03T04:47:51.963Z,12.00
2018-09-03T04:50:21.046Z,12.00
2018-09-03T04:52:49.864Z,12.10
2018-09-03T04:55:18.798Z,12.10
2018-09-03T04:57:48.299Z,12.20
2018-09-03T05:00:17.147Z,12.20
2018-09-03T05:02:45.997Z,12.20
2018-09-03T05:05:15.019Z,12.30
2018-09-03T05:07:43.856Z,12.40
2018-09-03T05:10:12.958Z,12.40
2018-09-03T05:12:41.973Z,12.50
2018-09-03T05:15:10.867Z,12.60
2018-09-03T05:17:39.727Z,12.70
2018-09-03T05:20:08.626Z,12.70
2018-09-03T05:22:37.812Z,12.80
2018-09-03T05:25:06.894Z,12.80
2018-09-03T05:27:35.858Z,12.90
2018-09-03T05:30:04.893Z,12.90
2018-09-03T05:32:33.713Z,13.00
2018-09-03T05:35:03.199Z,13.10
2018-09-03T05:37:31.992Z,13.10
2018-09-03T05:40:00.787Z,13.10
2018-09-03T05:42:29.969Z,13.20
2018-09-03T05:44:58.775Z,13.20
2018-09-03T05:47:27.562Z,13.30
2018-09-03T05:49:56.476Z,13.30
2018-09-03T05:52:25.415Z,13.30
2018-09-03T05:54:54.615Z,13.30
2018-09-03T05:57:23.496Z,13.40
2018-09-03T05:59:52.363Z,13.40
2018-09-03T06:02:21.171Z,13.50
2018-09-03T06:04:50.575Z,13.50
2018-09-03T06:07:19.748Z,13.50
2018-09-03T06:09:48.571Z,13.60
2018-09-03T06:12:17.551Z,13.60
2018-09-03T06:14:46.400Z,13.70
2018-09-03T06:17:15.235Z,13.80
2018-09-03T06:19:44.263Z,13.90
2018-09-03T06:22:13.124Z,13.90
2018-09-03T06:24:41.927Z,14.00
2018-09-03T06:27:11.141Z,14.10
2018-09-03T06:29:39.954Z,14.20
2018-09-03T06:32:08.783Z,14.20
2018-09-03T06:34:37.802Z,14.30
2018-09-03T06:37:07.039Z,14.40
2018-09-03T06:39:35.828Z,14.40
2018-09-03T06:42:04.927Z,14.50
2018-09-03T06:44:33.922Z,14.60
2018-09-03T06:47:03.110Z,14.70
2018-09-03T06:49:32.314Z,14.80
2018-09-03T06:52:01.139Z,14.90
2018-09-03T06:54:30.103Z,15.00
2018-09-03T06:56:59.295Z,15.10
2018-09-03T06:59:28.114Z,15.20
2018-09-03T07:01:57.000Z,15.30
2018-09-03T07:04:25.985Z,15.40
2018-09-03T07:06:54.815Z,15.50
2018-09-03T07:09:23.654Z,15.60
2018-09-03T07:11:52.974Z,15.70
2018-09-03T07:14:21.791Z,15.90
2018-09-03T07:16:50.706Z,15.90
2018-09-03T07:19:19.931Z,16.10
2018-09-03T07:21:48.752Z,16.20
2018-09-03T07:24:17.584Z,16.30
2018-09-03T07:26:46.544Z,16.40
2018-09-03T07:29:15.395Z,16.50
2018-09-03T07:31:44.320Z,16.60
2018-09-03T07:34:13.340Z,16.80
2018-09-03T07:36:42.170Z,16.80
2018-09-03T07:39:10.988Z,16.90
2018-09-03T07:41:39.952Z,17.10
2018-09-03T07:44:08.827Z,17.20
2018-09-03T07:46:37.631Z,17.20
2018-09-03T07:49:07.227Z,17.30
2018-09-03T07:51:36.072Z,17.50
2018-09-03T07:54:04.986Z,17.60
2018-09-03T07:56:34.463Z,17.70
2018-09-03T07:59:03.303Z,17.80
2018-09-03T08:01:32.125Z,17.90
2018-09-03T08:04:01.090Z,17.90
2018-09-03T08:06:30.040Z,18.00
2018-09-03T08:08:58.926Z,18.20
2018-09-03T08:11:28.155Z,18.20
2018-09-03T08:13:57.004Z,18.40
2018-09-03T08:16:25.904Z,18.40
2018-09-03T08:18:55.204Z,18.50
2018-09-03T08:21:24.039Z,18.70
2018-09-03T08:23:53.356Z,18.70
2018-09-03T08:26:22.731Z,18.80
2018-09-03T08:28:51.583Z,18.90
2018-09-03T08:31:20.448Z,19.00
2018-09-03T08:33:49.719Z,19.10
2018-09-03T08:36:18.552Z,19.20
2018-09-03T08:38:47.408Z,19.20
2018-09-03T08:41:16.448Z,19.30
2018-09-03T08:43:45.292Z,19.40
2018-09-03T08:46:14.123Z,19.40
2018-09-03T08:48:43.016Z,19.50
2018-09-03T08:51:11.835Z,19.50
2018-09-03T08:53:40.691Z,19.60
2018-09-03T08:56:10.091Z,19.70
2018-09-03T08:58:39.824Z,19.70
2018-09-03T09:01:08.687Z,19.80
2018-09-03T09:03:42.846Z,19.90
2018-09-03T09:06:13.567Z,20.00
2018-09-03T09:08:42.555Z,20.00
2018-09-03T09:11:11.371Z,20.10
2018-09-03T09:13:40.311Z,20.10
2018-09-03T09:16:09.427Z,20.10
2018-09-03T09:18:38.369Z,20.10
2018-09-03T09:21:07.260Z,20.20
2018-09-03T09:23:36.324Z,20.40
2018-09-03T09:26:05.195Z,20.40
2018-09-03T09:28:34.031Z,20.50
2018-09-03T09:31:03.096Z,20.50
2018-09-03T09:33:31.918Z,20.60
2018-09-03T09:36:00.727Z,20.70
2018-09-03T09:38:29.989Z,20.70
2018-09-03T09:40:58.843Z,20.80
2018-09-03T09:43:27.682Z,20.70
2018-09-03T09:45:56.631Z,20.90
2018-09-03T09:48:25.899Z,20.90
2018-09-03T09:50:54.736Z,21.10
2018-09-03T09:53:23.715Z,21.10
2018-09-03T09:55:52.551Z,21.10
2018-09-03T09:58:21.383Z,21.20
2018-09-03T10:00:55.456Z,21.20
2018-09-03T10:03:24.391Z,21.30
2018-09-03T10:05:53.210Z,21.40
2018-09-03T10:08:22.024Z,21.30
2018-09-03T10:10:51.055Z,21.40
2018-09-03T10:13:19.872Z,21.40
2018-09-03T10:15:48.693Z,21.50
2018-09-03T10:18:17.836Z,21.60
2018-09-03T10:20:46.788Z,21.60
2018-09-03T10:23:15.695Z,21.60
2018-09-03T10:25:44.699Z,21.60
2018-09-03T10:30:48.010Z,21.70
2018-09-03T10:33:16.915Z,21.80
2018-09-03T10:35:45.956Z,21.80
2018-09-03T10:38:14.911Z,21.90
2018-09-03T10:40:43.752Z,22.00
2018-09-03T10:43:12.591Z,22.00
2018-09-03T10:45:46.261Z,22.10
2018-09-03T10:48:16.519Z,22.10
2018-09-03T10:50:45.788Z,22.20
2018-09-03T10:53:14.617Z,22.20
2018-09-03T10:55:43.503Z,22.30
2018-09-03T10:58:12.660Z,22.30
2018-09-03T11:00:41.713Z,22.30
2018-09-03T11:03:10.711Z,22.50
2018-09-03T11:05:41.008Z,22.50
2018-09-03T11:08:09.841Z,22.40
2018-09-03T11:10:38.683Z,22.50
2018-09-03T11:13:07.982Z,22.50
2018-09-03T11:15:37.201Z,22.50
2018-09-03T11:18:06.265Z,22.40
2018-09-03T11:20:35.477Z,22.30
2018-09-03T11:23:04.526Z,22.40
2018-09-03T11:59:59.622Z,22.40
2018-09-03T12:02:31.277Z,23.40
2018-09-03T12:05:01.802Z,23.50
2018-09-03T12:07:32.113Z,23.50
2018-09-03T12:10:02.284Z,23.60
2018-09-03T12:12:31.399Z,23.70
2018-09-03T12:15:03.732Z,23.80
2018-09-03T12:17:32.709Z,23.80
2018-09-03T12:20:01.777Z,23.90
2018-09-03T12:22:30.647Z,24.10
2018-09-03T12:24:59.999Z,24.10
2018-09-03T12:27:28.803Z,24.20
2018-09-03T12:29:57.628Z,24.50
2018-09-03T12:32:26.574Z,24.70
2018-09-03T12:34:55.386Z,27.00
2018-09-03T12:37:24.227Z,29.90
2018-09-03T12:39:53.335Z,32.20
2018-09-03T12:42:22.239Z,34.80
2018-09-03T12:44:51.091Z,35.80
2018-09-03T12:47:20.297Z,36.80
2018-09-03T12:49:49.149Z,36.90
2018-09-03T12:52:18.003Z,38.70
2018-09-03T12:54:46.948Z,39.30
2018-09-03T12:57:15.796Z,40.20
2018-09-03T12:59:44.598Z,41.50
2018-09-03T13:02:13.643Z,41.50
2018-09-03T13:04:42.474Z,40.60
2018-09-03T13:07:11.375Z,39.50
2018-09-03T13:09:40.426Z,39.80
2018-09-03T13:12:09.858Z,40.40
2018-09-03T13:14:38.911Z,40.70
2018-09-03T13:17:07.767Z,40.00
2018-09-03T13:19:36.620Z,38.70
2018-09-03T13:22:05.632Z,38.80
2018-09-03T13:24:34.474Z,38.80
2018-09-03T13:27:03.444Z,38.60
2018-09-03T13:29:32.456Z,37.30
2018-09-03T13:32:01.367Z,37.50
2018-09-03T13:34:30.403Z,37.50
2018-09-03T13:36:59.295Z,36.90
2018-09-03T13:39:28.276Z,35.80
2018-09-03T13:41:57.107Z,35.70
2018-09-03T13:44:25.937Z,35.30
2018-09-03T13:46:54.967Z,35.50
2018-09-03T13:49:23.820Z,36.10
2018-09-03T13:51:52.675Z,35.60
2018-09-03T13:54:21.503Z,35.50
2018-09-03T13:56:50.413Z,35.90
2018-09-03T13:59:19.254Z,35.20
2018-09-03T14:01:48.116Z,35.30
2018-09-03T14:04:16.934Z,33.70
2018-09-03T14:06:45.792Z,32.90
2018-09-03T14:09:14.611Z,32.10
2018-09-03T14:11:43.563Z,31.40
2018-09-03T14:14:12.427Z,31.80
2018-09-03T14:16:41.387Z,32.40
2018-09-03T14:19:10.251Z,32.60
2018-09-03T14:21:39.131Z,33.00
2018-09-03T14:24:08.391Z,32.90
2018-09-03T14:26:37.229Z,33.00
2018-09-03T14:29:06.071Z,32.90
2018-09-03T14:31:34.891Z,32.60
2018-09-03T14:34:03.731Z,32.40
2018-09-03T14:36:32.582Z,31.50
2018-09-03T14:39:01.440Z,30.20
2018-09-03T14:41:30.254Z,28.80
2018-09-03T14:43:59.094Z,27.70
2018-09-03T14:46:27.930Z,26.70
2018-09-03T14:48:56.930Z,25.90
2018-09-03T14:51:26.291Z,25.10
2018-09-03T14:53:59.643Z,24.60
2018-09-03T14:56:29.176Z,24.20
2018-09-03T15:22:47.925Z,23.40
2018-09-03T15:25:16.735Z,22.20
2018-09-03T15:27:45.552Z,22.10
2018-09-03T15:30:14.409Z,22.00
2018-09-03T15:32:43.226Z,21.90
2018-09-03T15:35:12.030Z,21.80
2018-09-03T15:37:40.925Z,21.70
2018-09-03T15:40:09.747Z,21.60
2018-09-03T15:42:38.589Z,21.50
2018-09-03T15:45:07.578Z,21.50
2018-09-03T15:47:36.715Z,21.40
2018-09-03T15:50:05.995Z,21.40
2018-09-03T15:52:34.810Z,21.30
2018-09-03T15:55:03.715Z,21.30
2018-09-03T15:57:32.646Z,21.20
2018-09-03T16:00:01.931Z,21.10
2018-09-03T16:02:30.793Z,21.10
2018-09-03T16:04:59.816Z,21.10
2018-09-03T16:07:28.813Z,21.00
2018-09-03T16:09:57.706Z,20.90
2018-09-03T16:12:27.663Z,20.80
2018-09-03T16:14:56.628Z,20.80
2018-09-03T16:17:25.728Z,20.60
2018-09-03T16:19:54.972Z,20.60
2018-09-03T16:22:26.984Z,20.60
2018-09-03T16:24:58.588Z,20.50
2018-09-03T16:27:37.514Z,20.50
2018-09-03T16:30:07.631Z,20.50
2018-09-03T16:32:37.342Z,20.30
2018-09-03T16:35:06.968Z,20.30
2018-09-03T16:37:37.037Z,20.30
2018-09-03T16:40:11.950Z,20.20
2018-09-03T16:42:53.655Z,20.10
2018-09-03T16:45:27.454Z,20.00
2018-09-03T17:01:25.025Z,19.90
2018-09-03T17:03:53.959Z,19.40
2018-09-03T17:06:22.915Z,19.30
2018-09-03T17:08:52.186Z,19.20
2018-09-03T17:11:21.182Z,19.20
2018-09-03T17:13:50.527Z,19.10
2018-09-03T17:16:19.711Z,19.00
2018-09-03T17:18:48.580Z,18.90
2018-09-03T17:21:17.615Z,18.90
2018-09-03T17:23:46.449Z,18.80
2018-09-03T17:26:15.536Z,18.70
2018-09-03T17:28:44.463Z,18.60
2018-09-03T17:31:13.214Z,18.60
2018-09-03T17:33:42.123Z,18.50
2018-09-03T17:36:10.986Z,18.40
2018-09-03T17:38:39.947Z,18.30
2018-09-03T17:41:08.796Z,18.30
2018-09-03T17:43:37.664Z,18.30
2018-09-03T17:46:06.553Z,18.20
2018-09-03T17:48:35.764Z,18.00
2018-09-03T17:51:04.651Z,18.00
2018-09-03T17:53:33.511Z,17.90
2018-09-03T17:56:02.347Z,17.80
2018-09-03T17:58:31.231Z,17.70
2018-09-03T18:01:00.794Z,17.60
2018-09-03T18:03:29.730Z,17.60
2018-09-03T18:05:58.607Z,17.50
2018-09-03T18:08:27.963Z,17.40
2018-09-03T18:10:56.788Z,17.40
2018-09-03T18:13:25.621Z,17.30
2018-09-03T18:15:54.483Z,17.20
2018-09-03T18:18:23.305Z,17.20
2018-09-03T18:20:52.119Z,17.20
2018-09-03T18:23:20.952Z,17.10
2018-09-03T18:25:49.829Z,17.00
2018-09-03T18:28:19.395Z,17.00
2018-09-03T18:30:48.320Z,16.90
2018-09-03T18:33:17.160Z,16.80
2018-09-03T18:35:46.043Z,16.80
2018-09-03T18:38:14.942Z,16.70
2018-09-03T18:40:43.811Z,16.60
2018-09-03T18:43:12.699Z,16.50
2018-09-03T18:45:41.537Z,16.40
2018-09-03T18:48:10.371Z,16.40
2018-09-03T18:50:40.191Z,16.30
2018-09-03T18:53:09.136Z,16.20
2018-09-03T18:55:37.955Z,16.20
2018-09-03T18:58:06.766Z,16.10
2018-09-03T19:00:35.621Z,16.20
2018-09-03T19:03:04.458Z,16.20
2018-09-03T19:05:33.320Z,16.20
2018-09-03T19:08:02.217Z,16.10
2018-09-03T19:10:31.072Z,16.10
2018-09-03T19:12:59.915Z,16.00
2018-09-03T19:15:28.783Z,15.90
2018-09-03T19:17:57.634Z,15.90
2018-09-03T19:20:26.536Z,15.80
2018-09-03T19:22:56.139Z,15.80
2018-09-03T19:25:24.955Z,15.70
2018-09-03T19:27:53.783Z,15.70
2018-09-03T19:30:22.900Z,15.70
2018-09-03T19:32:51.808Z,15.70
2018-09-03T19:35:20.644Z,15.70
2018-09-03T19:37:49.467Z,15.70
2018-09-03T19:40:18.375Z,15.70
2018-09-03T19:42:47.251Z,15.70
2018-09-03T19:45:16.144Z,15.60
2018-09-03T19:47:45.025Z,15.70
2018-09-03T19:50:13.875Z,15.70
2018-09-03T19:52:42.726Z,15.60
2018-09-03T19:55:11.601Z,15.50
2018-09-03T19:57:40.655Z,15.40
2018-09-03T20:00:09.502Z,15.40
2018-09-03T20:02:38.347Z,15.40
2018-09-03T20:05:07.203Z,15.40
2018-09-03T20:07:36.031Z,15.40
2018-09-03T20:10:04.894Z,15.30
2018-09-03T20:12:33.739Z,15.30
2018-09-03T20:15:02.633Z,15.20
2018-09-03T20:17:31.464Z,15.20
2018-09-03T20:20:00.337Z,15.20
2018-09-03T20:22:29.143Z,15.00
2018-09-03T20:24:58.004Z,15.00
2018-09-03T20:27:26.852Z,14.90
2018-09-03T20:29:55.673Z,14.90
2018-09-03T20:32:24.782Z,14.80
2018-09-03T20:34:53.599Z,14.80
2018-09-03T20:37:22.443Z,14.70
2018-09-03T20:39:51.300Z,14.70
2018-09-03T20:42:20.127Z,14.70
2018-09-03T20:44:49.057Z,14.70
2018-09-03T20:47:17.844Z,14.70
2018-09-03T20:49:46.699Z,14.60
2018-09-03T20:52:15.515Z,14.60
2018-09-03T20:54:44.449Z,14.60
2018-09-03T20:57:13.282Z,14.50
2018-09-03T20:59:42.118Z,14.50
2018-09-03T21:02:10.970Z,14.40
2018-09-03T21:04:39.814Z,14.40
2018-09-03T21:07:08.643Z,14.40
2018-09-03T21:09:38.261Z,14.30
2018-09-03T21:12:07.140Z,14.40
2018-09-03T21:14:35.988Z,14.30
2018-09-03T21:17:05.131Z,14.30
2018-09-03T21:19:33.967Z,14.30
2018-09-03T21:22:02.899Z,14.30
2018-09-03T21:24:31.659Z,14.30
2018-09-03T21:27:00.497Z,14.40
2018-09-03T21:29:29.323Z,14.40
2018-09-03T21:31:58.116Z,14.40
2018-09-03T21:34:27.220Z,14.30
2018-09-03T21:36:56.050Z,14.30
2018-09-03T21:39:24.947Z,14.30
2018-09-03T21:41:53.791Z,14.30
2018-09-03T21:44:22.759Z,14.30
2018-09-03T21:46:51.694Z,14.30
2018-09-03T21:49:20.600Z,14.30
2018-09-03T21:51:49.400Z,14.30
2018-09-03T21:54:18.243Z,14.30
2018-09-03T21:56:47.227Z,14.30
2018-09-03T21:59:16.059Z,14.30
2018-09-03T22:01:44.973Z,14.20
2018-09-03T22:04:13.833Z,14.30
2018-09-03T22:06:42.654Z,14.20
2018-09-03T22:09:11.523Z,14.20
2018-09-03T22:11:40.351Z,14.10
2018-09-03T22:14:09.207Z,14.10
2018-09-03T22:16:38.038Z,14.10
2018-09-03T22:19:06.879Z,14.00
2018-09-03T22:21:36.028Z,14.00
2018-09-03T22:24:04.876Z,14.00
2018-09-03T22:26:33.703Z,14.00
2018-09-03T22:29:02.726Z,14.00
2018-09-03T22:31:31.595Z,13.90
2018-09-03T22:34:00.454Z,13.90
2018-09-03T22:36:29.763Z,13.90
2018-09-03T22:38:58.637Z,13.90
2018-09-03T22:41:27.610Z,13.90
2018-09-03T22:43:56.465Z,13.90
2018-09-03T22:46:25.392Z,13.80
2018-09-03T22:48:54.528Z,13.80
2018-09-03T22:51:23.507Z,13.80
2018-09-03T22:53:52.392Z,13.70
2018-09-03T22:56:21.511Z,13.70
2018-09-03T22:58:50.444Z,13.70
2018-09-03T23:01:19.351Z,13.60
2018-09-03T23:03:48.179Z,13.60
2018-09-03T23:06:17.050Z,13.50
2018-09-03T23:08:45.879Z,13.50
2018-09-03T23:11:14.727Z,13.50
2018-09-03T23:13:43.539Z,13.50
2018-09-03T23:16:12.841Z,13.50
2018-09-03T23:18:41.668Z,13.50
2018-09-03T23:21:10.564Z,13.50
2018-09-03T23:23:39.410Z,13.60
2018-09-03T23:26:08.226Z,13.60
2018-09-03T23:28:37.063Z,13.50
2018-09-03T23:31:06.026Z,13.50
2018-09-03T23:33:34.867Z,13.60
2018-09-03T23:36:03.852Z,13.50
2018-09-03T23:38:32.943Z,13.50
2018-09-03T23:41:01.746Z,13.50
2018-09-03T23:43:30.619Z,13.50
2018-09-03T23:45:59.446Z,13.50
2018-09-03T23:48:28.326Z,13.50
2018-09-03T23:50:57.230Z,13.50
2018-09-03T23:53:26.094Z,13.40
2018-09-03T23:55:54.954Z,13.30
2018-09-03T23:58:23.799Z,13.30
